createdAt,value
2018-01-29T00:00:47.198Z,11.00
2018-01-29T00:02:40.106Z,10.90
2018-01-29T00:03:40.057Z,11.00
2018-01-29T00:05:33.004Z,11.30
2018-01-29T00:06:32.913Z,10.90
2018-01-29T00:08:25.849Z,12.80
2018-01-29T00:09:25.752Z,12.00
2018-01-29T00:11:18.633Z,10.50
2018-01-29T00:12:18.605Z,10.00
2018-01-29T00:14:11.509Z,10.80
2018-01-29T00:15:11.456Z,11.60
2018-01-29T00:17:04.341Z,11.10
2018-01-29T00:18:04.367Z,10.50
2018-01-29T00:19:57.258Z,10.40
2018-01-29T00:20:57.154Z,10.00
2018-01-29T00:22:50.034Z,9.80
2018-01-29T00:23:50.006Z,9.30
2018-01-29T00:25:42.919Z,9.80
2018-01-29T00:26:42.858Z,9.70
2018-01-29T00:28:35.734Z,9.70
2018-01-29T00:29:35.708Z,9.00
2018-01-29T00:31:28.658Z,7.80
2018-01-29T00:32:28.555Z,9.20
2018-01-29T00:34:21.436Z,9.20
2018-01-29T00:35:21.409Z,8.80
2018-01-29T00:37:14.383Z,9.20
2018-01-29T00:38:14.256Z,8.90
2018-01-29T00:40:07.208Z,8.20
2018-01-29T00:41:07.110Z,8.40
2018-01-29T00:43:00.054Z,9.20
2018-01-29T00:43:59.959Z,9.10
2018-01-29T00:45:52.843Z,8.30
2018-01-29T00:46:52.807Z,8.90
2018-01-29T00:48:45.712Z,9.00
2018-01-29T00:49:45.721Z,8.80
2018-01-29T00:51:38.614Z,8.10
2018-01-29T00:52:38.510Z,8.10
2018-01-29T00:54:31.393Z,7.80
2018-01-29T00:55:32.445Z,7.60
2018-01-29T00:57:24.266Z,7.70
2018-01-29T00:58:24.225Z,6.70
2018-01-29T01:00:17.116Z,7.40
2018-01-29T01:01:17.061Z,7.40
2018-01-29T01:03:09.942Z,6.50
2018-01-29T01:04:09.914Z,6.40
2018-01-29T01:06:02.859Z,5.70
2018-01-29T01:07:02.765Z,5.50
2018-01-29T01:08:55.646Z,5.30
2018-01-29T01:09:55.612Z,5.50
2018-01-29T01:11:48.522Z,4.80
2018-01-29T01:12:48.525Z,4.90
2018-01-29T01:14:41.412Z,4.50
2018-01-29T01:15:41.314Z,4.80
2018-01-29T01:17:34.261Z,4.80
2018-01-29T01:18:34.165Z,5.00
2018-01-29T01:20:27.074Z,4.80
2018-01-29T01:21:27.076Z,4.90
2018-01-29T01:23:19.964Z,4.90
2018-01-29T01:24:19.870Z,4.70
2018-01-29T01:26:12.771Z,4.70
2018-01-29T01:27:12.776Z,5.00
2018-01-29T01:29:05.602Z,4.90
2018-01-29T01:30:05.565Z,5.10
2018-01-29T01:31:58.473Z,5.00
2018-01-29T01:32:58.479Z,5.10
2018-01-29T01:34:51.371Z,5.30
2018-01-29T01:35:51.271Z,4.80
2018-01-29T01:37:44.149Z,5.40
2018-01-29T01:38:44.116Z,5.50
2018-01-29T01:40:37.021Z,5.60
2018-01-29T01:41:36.970Z,5.40
2018-01-29T01:43:29.848Z,5.20
2018-01-29T01:44:29.880Z,5.40
2018-01-29T01:46:22.727Z,5.80
2018-01-29T01:47:22.669Z,6.00
2018-01-29T01:49:15.557Z,6.10
2018-01-29T01:50:15.526Z,6.60
2018-01-29T01:52:08.426Z,6.00
2018-01-29T01:53:08.369Z,6.20
2018-01-29T01:55:01.273Z,5.90
2018-01-29T01:56:01.225Z,6.20
2018-01-29T01:57:54.104Z,5.90
2018-01-29T01:58:54.133Z,6.30
2018-01-29T02:00:46.977Z,6.40
2018-01-29T02:01:46.919Z,6.90
2018-01-29T02:03:39.872Z,6.00
2018-01-29T02:04:39.774Z,6.00
2018-01-29T02:06:32.719Z,6.30
2018-01-29T02:07:32.624Z,6.60
2018-01-29T02:09:26.037Z,6.90
2018-01-29T02:10:25.470Z,6.70
2018-01-29T02:12:18.381Z,6.70
2018-01-29T02:13:18.385Z,7.00
2018-01-29T02:15:11.233Z,6.60
2018-01-29T02:16:11.173Z,6.60
2018-01-29T02:18:04.056Z,6.90
2018-01-29T02:19:04.023Z,7.40
2018-01-29T02:20:56.968Z,6.90
2018-01-29T02:21:56.935Z,6.20
2018-01-29T02:23:49.827Z,6.10
2018-01-29T02:24:49.728Z,6.30
2018-01-29T02:26:42.671Z,6.80
2018-01-29T02:27:42.579Z,7.00
2018-01-29T02:29:35.486Z,6.90
2018-01-29T02:30:35.427Z,6.70
2018-01-29T02:32:28.378Z,6.00
2018-01-29T02:33:28.275Z,6.80
2018-01-29T02:35:21.236Z,6.60
2018-01-29T02:36:21.126Z,6.10
2018-01-29T02:38:14.085Z,6.30
2018-01-29T02:39:13.991Z,6.40
2018-01-29T02:41:06.941Z,6.40
2018-01-29T02:42:06.833Z,6.40
2018-01-29T02:43:59.738Z,6.70
2018-01-29T02:44:59.677Z,6.30
2018-01-29T02:46:52.588Z,6.10
2018-01-29T02:47:52.530Z,5.90
2018-01-29T02:49:45.472Z,6.50
2018-01-29T02:50:45.394Z,6.50
2018-01-29T02:52:38.262Z,6.50
2018-01-29T02:53:38.245Z,6.80
2018-01-29T02:55:32.208Z,5.70
2018-01-29T02:56:31.081Z,6.40
2018-01-29T02:58:23.963Z,6.20
2018-01-29T02:59:23.994Z,6.90
2018-01-29T03:01:16.838Z,6.10
2018-01-29T03:02:16.794Z,6.70
2018-01-29T03:04:09.665Z,6.30
2018-01-29T03:05:09.631Z,7.30
2018-01-29T03:07:02.541Z,6.70
2018-01-29T03:08:02.478Z,7.30
2018-01-29T03:09:55.429Z,6.60
2018-01-29T03:10:55.335Z,6.40
2018-01-29T03:12:48.248Z,7.10
2018-01-29T03:13:48.181Z,6.30
2018-01-29T03:15:41.091Z,6.80
2018-01-29T03:16:41.040Z,5.60
2018-01-29T03:18:33.951Z,6.20
2018-01-29T03:19:33.881Z,6.20
2018-01-29T03:21:26.834Z,5.80
2018-01-29T03:22:26.735Z,5.60
2018-01-29T03:24:19.685Z,6.60
2018-01-29T03:25:19.581Z,6.60
2018-01-29T03:27:12.493Z,6.30
2018-01-29T03:28:12.496Z,6.20
2018-01-29T03:30:05.386Z,6.20
2018-01-29T03:31:05.285Z,6.60
2018-01-29T03:32:58.237Z,6.40
2018-01-29T03:33:58.136Z,6.50
2018-01-29T03:35:52.110Z,5.90
2018-01-29T03:36:50.989Z,5.50
2018-01-29T03:38:43.872Z,5.80
2018-01-29T03:39:43.833Z,5.60
2018-01-29T03:41:36.747Z,5.60
2018-01-29T03:42:36.687Z,5.80
2018-01-29T03:44:29.637Z,5.80
2018-01-29T03:45:29.541Z,5.40
2018-01-29T03:47:22.450Z,5.10
2018-01-29T03:48:22.393Z,5.20
2018-01-29T03:50:15.299Z,4.80
2018-01-29T03:51:15.237Z,5.20
2018-01-29T03:53:08.191Z,5.40
2018-01-29T03:54:08.092Z,5.20
2018-01-29T03:56:01.042Z,5.10
2018-01-29T03:57:00.941Z,5.00
2018-01-29T03:58:53.887Z,4.80
2018-01-29T03:59:53.793Z,5.20
2018-01-29T04:01:46.697Z,4.90
2018-01-29T04:02:46.644Z,4.70
2018-01-29T04:04:39.553Z,4.50
2018-01-29T04:05:39.498Z,4.70
2018-01-29T04:07:32.375Z,4.50
2018-01-29T04:08:32.341Z,4.50
2018-01-29T04:10:25.291Z,4.60
2018-01-29T04:11:25.191Z,4.60
2018-01-29T04:13:18.076Z,4.50
2018-01-29T04:14:18.104Z,4.00
2018-01-29T04:16:10.988Z,3.90
2018-01-29T04:17:10.897Z,4.40
2018-01-29T04:19:03.841Z,4.20
2018-01-29T04:20:03.757Z,4.00
2018-01-29T04:21:56.697Z,4.20
2018-01-29T04:22:56.598Z,4.10
2018-01-29T04:24:49.503Z,4.50
2018-01-29T04:25:49.450Z,4.80
2018-01-29T04:27:42.391Z,4.10
2018-01-29T04:28:42.297Z,4.30
2018-01-29T04:30:35.248Z,4.10
2018-01-29T04:31:35.147Z,4.00
2018-01-29T04:33:28.025Z,4.50
2018-01-29T04:34:28.009Z,4.30
2018-01-29T04:36:20.902Z,4.40
2018-01-29T04:37:20.849Z,4.20
2018-01-29T04:39:13.730Z,4.50
2018-01-29T04:40:13.696Z,4.70
2018-01-29T04:42:06.650Z,4.50
2018-01-29T04:43:06.549Z,4.50
2018-01-29T04:44:59.502Z,4.30
2018-01-29T04:45:59.400Z,4.90
2018-01-29T04:47:52.280Z,4.20
2018-01-29T04:48:52.247Z,4.40
2018-01-29T04:50:45.159Z,4.50
2018-01-29T04:51:45.097Z,4.10
2018-01-29T04:53:37.983Z,4.40
2018-01-29T04:54:37.949Z,3.90
2018-01-29T04:56:30.902Z,4.20
2018-01-29T04:57:30.806Z,4.30
2018-01-29T04:59:23.686Z,4.50
2018-01-29T05:00:23.711Z,4.20
2018-01-29T05:02:16.601Z,4.70
2018-01-29T05:03:16.502Z,4.40
2018-01-29T05:05:09.449Z,4.30
2018-01-29T05:06:09.356Z,4.50
2018-01-29T05:08:02.234Z,4.80
2018-01-29T05:09:02.199Z,4.50
2018-01-29T05:10:55.109Z,5.00
2018-01-29T05:11:55.049Z,5.00
2018-01-29T05:13:48.006Z,4.90
2018-01-29T05:14:47.901Z,4.60
2018-01-29T05:16:40.836Z,4.60
2018-01-29T05:17:40.751Z,4.70
2018-01-29T05:19:33.637Z,4.70
2018-01-29T05:20:33.617Z,4.80
2018-01-29T05:22:26.557Z,4.80
2018-01-29T05:23:26.453Z,5.00
2018-01-29T05:25:19.406Z,4.40
2018-01-29T05:26:19.366Z,5.00
2018-01-29T05:28:12.257Z,4.80
2018-01-29T05:29:12.153Z,4.70
2018-01-29T05:31:05.060Z,4.60
2018-01-29T05:32:05.014Z,4.40
2018-01-29T05:33:57.887Z,4.60
2018-01-29T05:34:57.917Z,4.00
2018-01-29T05:36:50.761Z,4.50
2018-01-29T05:37:50.767Z,4.70
2018-01-29T05:39:43.618Z,4.80
2018-01-29T05:40:43.562Z,4.70
2018-01-29T05:42:36.439Z,4.60
2018-01-29T05:43:36.408Z,4.90
2018-01-29T05:45:29.366Z,4.60
2018-01-29T05:46:29.255Z,4.40
2018-01-29T05:48:22.209Z,4.00
2018-01-29T05:49:22.108Z,4.90
2018-01-29T05:51:15.061Z,4.50
2018-01-29T05:52:14.973Z,4.60
2018-01-29T05:54:07.841Z,4.20
2018-01-29T05:55:07.811Z,4.70
2018-01-29T05:57:00.759Z,4.40
2018-01-29T05:58:00.663Z,3.90
2018-01-29T05:59:53.610Z,4.50
2018-01-29T06:00:53.512Z,4.50
2018-01-29T06:02:46.353Z,4.30
2018-01-29T06:03:46.316Z,4.80
2018-01-29T06:05:39.176Z,4.60
2018-01-29T06:06:39.128Z,4.90
2018-01-29T06:08:31.952Z,4.50
2018-01-29T06:09:31.931Z,4.90
2018-01-29T06:11:24.794Z,4.10
2018-01-29T06:12:24.768Z,4.30
2018-01-29T06:14:17.564Z,4.60
2018-01-29T06:15:17.538Z,4.00
2018-01-29T06:17:10.406Z,4.30
2018-01-29T06:18:10.347Z,4.50
2018-01-29T06:20:03.221Z,4.60
2018-01-29T06:21:03.156Z,4.10
2018-01-29T06:22:55.994Z,4.60
2018-01-29T06:23:55.961Z,3.80
2018-01-29T06:25:48.824Z,3.50
2018-01-29T06:26:48.769Z,3.50
2018-01-29T06:28:41.602Z,3.90
2018-01-29T06:29:41.580Z,3.70
2018-01-29T06:31:34.436Z,4.20
2018-01-29T06:32:34.378Z,3.90
2018-01-29T06:34:27.225Z,3.90
2018-01-29T06:35:27.178Z,3.50
2018-01-29T06:37:20.051Z,3.70
2018-01-29T06:38:19.993Z,4.30
2018-01-29T06:40:12.854Z,3.60
2018-01-29T06:41:12.813Z,3.80
2018-01-29T06:43:05.633Z,3.90
2018-01-29T06:44:05.601Z,3.70
2018-01-29T06:45:58.469Z,4.10
2018-01-29T06:46:58.404Z,3.40
2018-01-29T06:48:51.259Z,3.50
2018-01-29T06:49:51.218Z,3.90
2018-01-29T06:51:44.091Z,3.60
2018-01-29T06:52:44.036Z,3.50
2018-01-29T06:54:36.882Z,3.80
2018-01-29T06:55:36.846Z,4.00
2018-01-29T06:57:29.716Z,3.50
2018-01-29T06:58:29.652Z,3.60
2018-01-29T07:00:22.522Z,3.40
2018-01-29T07:01:22.464Z,3.50
2018-01-29T07:03:15.298Z,4.20
2018-01-29T07:04:15.268Z,4.00
2018-01-29T07:06:08.131Z,4.00
2018-01-29T07:07:08.112Z,3.60
2018-01-29T07:09:00.922Z,4.30
2018-01-29T07:10:00.891Z,3.60
2018-01-29T07:11:53.763Z,3.90
2018-01-29T07:12:53.702Z,3.90
2018-01-29T07:14:46.593Z,3.70
2018-01-29T07:15:46.541Z,3.80
2018-01-29T07:17:39.389Z,3.60
2018-01-29T07:18:39.349Z,3.70
2018-01-29T07:20:32.206Z,3.90
2018-01-29T07:21:32.151Z,3.60
2018-01-29T07:23:24.992Z,4.20
2018-01-29T07:24:24.957Z,4.00
2018-01-29T07:26:17.817Z,4.20
2018-01-29T07:27:17.757Z,4.00
2018-01-29T07:29:10.598Z,3.70
2018-01-29T07:30:10.565Z,3.80
2018-01-29T07:32:03.424Z,3.70
2018-01-29T07:33:03.368Z,4.10
2018-01-29T07:34:56.237Z,4.20
2018-01-29T07:35:56.179Z,4.20
2018-01-29T07:37:49.019Z,4.00
2018-01-29T07:38:48.980Z,4.20
2018-01-29T07:40:41.851Z,3.80
2018-01-29T07:41:41.795Z,3.80
2018-01-29T07:43:34.633Z,3.90
2018-01-29T07:44:34.596Z,3.70
2018-01-29T07:46:27.499Z,4.10
2018-01-29T07:47:27.446Z,4.00
2018-01-29T07:49:20.284Z,4.40
2018-01-29T07:50:20.245Z,3.90
2018-01-29T07:52:13.111Z,4.50
2018-01-29T07:53:13.057Z,3.70
2018-01-29T07:55:05.931Z,4.10
2018-01-29T07:56:05.866Z,4.00
2018-01-29T07:57:58.709Z,4.40
2018-01-29T07:58:58.675Z,4.40
2018-01-29T08:00:51.540Z,4.00
2018-01-29T08:01:51.478Z,4.00
2018-01-29T08:03:44.322Z,4.20
2018-01-29T08:04:44.286Z,4.70
2018-01-29T08:06:37.151Z,4.40
2018-01-29T08:07:37.095Z,4.70
2018-01-29T08:09:29.937Z,4.60
2018-01-29T08:10:29.899Z,3.90
2018-01-29T08:12:22.765Z,4.10
2018-01-29T08:13:22.704Z,4.50
2018-01-29T08:15:15.570Z,4.30
2018-01-29T08:16:15.515Z,4.30
2018-01-29T08:18:08.355Z,4.70
2018-01-29T08:19:08.321Z,5.30
2018-01-29T08:21:01.188Z,4.80
2018-01-29T08:22:01.125Z,4.40
2018-01-29T08:23:53.962Z,4.60
2018-01-29T08:24:53.927Z,4.60
2018-01-29T08:26:46.799Z,4.40
2018-01-29T08:27:46.740Z,4.30
2018-01-29T08:29:39.619Z,4.90
2018-01-29T08:30:39.548Z,4.40
2018-01-29T08:32:32.388Z,4.40
2018-01-29T08:33:32.355Z,4.30
2018-01-29T08:35:25.217Z,4.20
2018-01-29T08:36:25.156Z,4.10
2018-01-29T08:38:17.999Z,4.20
2018-01-29T08:39:17.972Z,4.30
2018-01-29T08:41:10.840Z,4.10
2018-01-29T08:42:10.780Z,3.80
2018-01-29T08:44:03.625Z,4.00
2018-01-29T08:45:03.587Z,4.10
2018-01-29T08:46:56.456Z,3.80
2018-01-29T08:47:56.390Z,4.00
2018-01-29T08:49:49.258Z,3.80
2018-01-29T08:50:49.197Z,4.10
2018-01-29T08:52:42.038Z,3.80
2018-01-29T08:53:42.007Z,3.70
2018-01-29T08:55:34.880Z,4.20
2018-01-29T08:56:34.817Z,4.10
2018-01-29T08:58:27.655Z,3.60
2018-01-29T08:59:27.625Z,3.60
2018-01-29T09:01:20.492Z,3.90
2018-01-29T09:02:20.428Z,3.60
2018-01-29T09:04:13.270Z,4.00
2018-01-29T09:05:13.236Z,3.80
2018-01-29T09:07:06.110Z,4.00
2018-01-29T09:08:06.049Z,4.30
2018-01-29T09:09:58.918Z,3.70
2018-01-29T09:10:58.868Z,3.60
2018-01-29T09:12:51.701Z,4.10
2018-01-29T09:13:51.659Z,3.80
2018-01-29T09:15:44.524Z,4.00
2018-01-29T09:16:44.478Z,3.60
2018-01-29T09:18:37.314Z,4.00
2018-01-29T09:19:37.279Z,3.80
2018-01-29T09:21:30.140Z,3.60
2018-01-29T09:22:30.087Z,3.70
2018-01-29T09:24:22.930Z,3.80
2018-01-29T09:25:22.893Z,3.60
2018-01-29T09:27:15.755Z,3.90
2018-01-29T09:28:15.702Z,3.70
2018-01-29T09:30:08.569Z,3.90
2018-01-29T09:31:08.499Z,4.10
2018-01-29T09:33:01.344Z,4.20
2018-01-29T09:34:01.313Z,3.40
2018-01-29T09:35:54.180Z,4.30
2018-01-29T09:36:54.119Z,4.40
2018-01-29T09:38:46.968Z,3.90
2018-01-29T09:39:46.933Z,3.90
2018-01-29T09:41:39.803Z,3.70
2018-01-29T09:42:39.741Z,3.40
2018-01-29T09:44:32.582Z,3.20
2018-01-29T09:45:32.545Z,3.50
2018-01-29T09:47:25.409Z,3.00
2018-01-29T09:48:25.355Z,3.20
2018-01-29T09:50:18.214Z,2.70
2018-01-29T09:51:18.163Z,3.10
2018-01-29T09:53:11.003Z,3.20
2018-01-29T09:54:10.973Z,3.30
2018-01-29T09:56:03.828Z,2.70
2018-01-29T09:57:03.778Z,2.80
2018-01-29T09:58:56.612Z,3.00
2018-01-29T09:59:56.582Z,2.70
2018-01-29T10:01:49.522Z,3.10
2018-01-29T10:02:49.467Z,3.00
2018-01-29T10:04:42.314Z,2.70
2018-01-29T10:05:42.272Z,3.10
2018-01-29T10:07:35.137Z,2.60
2018-01-29T10:08:35.083Z,2.50
2018-01-29T10:10:27.952Z,2.80
2018-01-29T10:11:27.885Z,2.90
2018-01-29T10:13:20.723Z,2.70
2018-01-29T10:14:20.690Z,2.70
2018-01-29T10:16:13.566Z,3.20
2018-01-29T10:17:13.501Z,3.00
2018-01-29T10:19:06.345Z,3.00
2018-01-29T10:20:06.311Z,2.50
2018-01-29T10:21:59.172Z,3.20
2018-01-29T10:22:59.123Z,2.90
2018-01-29T10:24:51.986Z,2.90
2018-01-29T10:25:51.930Z,3.20
2018-01-29T10:27:44.771Z,2.50
2018-01-29T10:28:44.737Z,2.60
2018-01-29T10:30:37.597Z,2.50
2018-01-29T10:31:37.538Z,2.40
2018-01-29T10:33:30.378Z,2.70
2018-01-29T10:34:30.346Z,2.80
2018-01-29T10:36:23.214Z,3.00
2018-01-29T10:37:23.150Z,2.50
2018-01-29T10:39:15.999Z,2.60
2018-01-29T10:40:15.968Z,2.70
2018-01-29T10:42:08.826Z,2.70
2018-01-29T10:43:08.777Z,2.80
2018-01-29T10:45:01.637Z,2.80
2018-01-29T10:46:01.572Z,3.30
2018-01-29T10:47:54.412Z,3.10
2018-01-29T10:48:54.382Z,4.80
2018-01-29T10:50:47.250Z,2.50
2018-01-29T10:51:47.186Z,2.40
2018-01-29T10:53:40.022Z,2.90
2018-01-29T10:54:39.997Z,2.90
2018-01-29T10:56:32.852Z,2.50
2018-01-29T10:57:32.798Z,2.60
2018-01-29T10:59:26.644Z,2.80
2018-01-29T11:00:25.612Z,2.60
2018-01-29T11:02:18.484Z,2.30
2018-01-29T11:03:18.422Z,2.60
2018-01-29T11:05:11.289Z,2.70
2018-01-29T11:06:11.225Z,2.30
2018-01-29T11:08:04.068Z,2.50
2018-01-29T11:09:04.030Z,2.30
2018-01-29T11:10:56.907Z,2.50
2018-01-29T11:11:56.840Z,2.50
2018-01-29T11:13:49.677Z,2.60
2018-01-29T11:14:49.642Z,2.30
2018-01-29T11:16:42.510Z,2.50
2018-01-29T11:17:42.450Z,2.40
2018-01-29T11:19:35.297Z,2.40
2018-01-29T11:20:35.255Z,2.40
2018-01-29T11:22:28.128Z,2.60
2018-01-29T11:23:28.061Z,2.50
2018-01-29T11:25:20.927Z,2.40
2018-01-29T11:26:20.871Z,2.50
2018-01-29T11:28:13.709Z,2.50
2018-01-29T11:29:13.680Z,2.50
2018-01-29T11:31:06.538Z,2.60
2018-01-29T11:32:06.484Z,2.40
2018-01-29T11:33:59.319Z,2.80
2018-01-29T11:34:59.289Z,2.60
2018-01-29T11:36:52.158Z,2.40
2018-01-29T11:37:52.102Z,2.50
2018-01-29T11:39:45.537Z,3.00
2018-01-29T11:40:44.903Z,2.50
2018-01-29T11:42:37.772Z,2.70
2018-01-29T11:43:37.712Z,2.40
2018-01-29T11:45:30.570Z,2.50
2018-01-29T11:46:30.516Z,2.30
2018-01-29T11:48:23.350Z,2.90
2018-01-29T11:49:23.325Z,2.60
2018-01-29T11:51:16.186Z,2.50
2018-01-29T11:52:16.133Z,2.70
2018-01-29T11:54:08.983Z,2.30
2018-01-29T11:55:08.934Z,2.60
2018-01-29T11:57:01.799Z,2.70
2018-01-29T11:58:01.749Z,2.40
2018-01-29T11:59:54.609Z,2.50
2018-01-29T12:00:54.555Z,2.70
2018-01-29T12:02:47.385Z,2.60
2018-01-29T12:03:47.357Z,2.40
2018-01-29T12:05:40.217Z,2.50
2018-01-29T12:06:40.160Z,2.60
2018-01-29T12:08:33.997Z,2.40
2018-01-29T12:09:33.967Z,2.90
2018-01-29T12:11:26.832Z,2.50
2018-01-29T12:12:26.775Z,2.50
2018-01-29T12:14:19.614Z,2.60
2018-01-29T12:15:19.592Z,2.90
2018-01-29T12:17:12.450Z,2.60
2018-01-29T12:18:12.401Z,2.60
2018-01-29T12:20:05.256Z,2.60
2018-01-29T12:21:05.200Z,2.80
2018-01-29T12:22:58.044Z,2.40
2018-01-29T12:23:58.009Z,2.80
2018-01-29T12:25:50.880Z,2.90
2018-01-29T12:26:50.819Z,2.90
2018-01-29T12:28:43.648Z,2.90
2018-01-29T12:29:43.626Z,2.80
2018-01-29T12:31:36.487Z,2.80
2018-01-29T12:32:36.430Z,3.20
2018-01-29T12:34:29.264Z,2.50
2018-01-29T12:35:30.230Z,2.60
2018-01-29T12:37:22.098Z,2.90
2018-01-29T12:38:22.042Z,2.90
2018-01-29T12:40:14.902Z,3.10
2018-01-29T12:41:14.847Z,2.30
2018-01-29T12:43:07.682Z,2.70
2018-01-29T12:44:07.658Z,2.80
2018-01-29T12:46:00.514Z,2.60
2018-01-29T12:47:00.460Z,2.70
2018-01-29T12:48:53.302Z,3.00
2018-01-29T12:49:53.269Z,2.70
2018-01-29T12:51:46.138Z,2.80
2018-01-29T12:52:46.077Z,2.80
2018-01-29T12:54:38.915Z,2.70
2018-01-29T12:55:38.925Z,2.80
2018-01-29T12:57:31.747Z,2.50
2018-01-29T12:58:31.684Z,2.80
2018-01-29T13:00:24.555Z,2.90
2018-01-29T13:01:24.494Z,2.70
2018-01-29T13:03:17.328Z,2.90
2018-01-29T13:04:17.300Z,2.90
2018-01-29T13:06:10.161Z,2.70
2018-01-29T13:07:10.111Z,2.80
2018-01-29T13:09:02.946Z,2.70
2018-01-29T13:10:02.920Z,2.70
2018-01-29T13:11:55.783Z,2.90
2018-01-29T13:12:55.724Z,2.60
2018-01-29T13:14:48.599Z,2.90
2018-01-29T13:15:48.538Z,2.70
2018-01-29T13:17:41.373Z,2.70
2018-01-29T13:18:41.333Z,2.40
2018-01-29T13:20:34.201Z,2.90
2018-01-29T13:21:34.143Z,3.30
2018-01-29T13:23:26.982Z,2.80
2018-01-29T13:24:26.948Z,2.80
2018-01-29T13:26:19.819Z,2.70
2018-01-29T13:27:19.763Z,2.80
2018-01-29T13:29:12.603Z,2.80
2018-01-29T13:30:12.564Z,3.20
2018-01-29T13:32:05.432Z,2.80
2018-01-29T13:33:05.380Z,3.30
2018-01-29T13:34:58.240Z,3.10
2018-01-29T13:35:58.191Z,3.30
2018-01-29T13:37:51.029Z,3.10
2018-01-29T13:38:50.994Z,2.90
2018-01-29T13:40:43.855Z,3.30
2018-01-29T13:41:43.801Z,3.10
2018-01-29T13:43:36.644Z,3.40
2018-01-29T13:44:36.608Z,2.90
2018-01-29T13:46:29.473Z,3.20
2018-01-29T13:47:29.415Z,3.10
2018-01-29T13:49:22.338Z,3.10
2018-01-29T13:50:22.221Z,3.30
2018-01-29T13:52:15.086Z,3.40
2018-01-29T13:53:15.027Z,3.40
2018-01-29T13:55:07.901Z,3.30
2018-01-29T13:56:07.835Z,3.20
2018-01-29T13:58:00.675Z,3.20
2018-01-29T13:59:00.652Z,3.50
2018-01-29T14:00:53.517Z,3.50
2018-01-29T14:01:53.458Z,3.50
2018-01-29T14:03:46.290Z,3.70
2018-01-29T14:04:46.262Z,3.50
2018-01-29T14:06:39.127Z,4.00
2018-01-29T14:07:39.078Z,3.40
2018-01-29T14:09:31.918Z,3.70
2018-01-29T14:10:31.881Z,3.40
2018-01-29T14:12:24.750Z,3.30
2018-01-29T14:13:24.691Z,3.80
2018-01-29T14:15:17.550Z,3.70
2018-01-29T14:16:17.492Z,3.80
2018-01-29T14:18:10.346Z,3.40
2018-01-29T14:19:10.307Z,3.70
2018-01-29T14:21:03.174Z,3.50
2018-01-29T14:22:03.114Z,3.60
2018-01-29T14:23:55.955Z,3.20
2018-01-29T14:24:55.921Z,3.40
2018-01-29T14:26:48.783Z,3.90
2018-01-29T14:27:48.737Z,3.90
2018-01-29T14:29:41.565Z,3.50
2018-01-29T14:30:41.543Z,3.60
2018-01-29T14:32:34.399Z,3.40
2018-01-29T14:33:34.342Z,4.30
2018-01-29T14:35:28.202Z,3.70
2018-01-29T14:36:27.149Z,3.40
2018-01-29T14:38:19.990Z,3.80
2018-01-29T14:39:19.965Z,3.70
2018-01-29T14:41:12.830Z,3.00
2018-01-29T14:42:12.766Z,3.20
2018-01-29T14:44:05.608Z,3.20
2018-01-29T14:45:05.580Z,3.00
2018-01-29T14:46:58.447Z,3.40
2018-01-29T14:47:58.394Z,3.40
2018-01-29T14:49:51.253Z,3.70
2018-01-29T14:50:51.197Z,3.60
2018-01-29T14:52:44.022Z,4.10
2018-01-29T14:53:44.009Z,3.60
2018-01-29T14:55:37.867Z,4.70
2018-01-29T14:56:36.925Z,5.20
2018-01-29T14:58:29.640Z,5.40
2018-01-29T14:59:29.613Z,5.90
2018-01-29T15:01:22.474Z,6.00
2018-01-29T15:02:22.421Z,5.70
2018-01-29T15:04:15.257Z,5.70
2018-01-29T15:05:15.219Z,5.70
2018-01-29T15:07:08.084Z,6.10
2018-01-29T15:08:08.032Z,4.70
2018-01-29T15:10:00.893Z,5.20
2018-01-29T15:11:00.831Z,5.80
2018-01-29T15:12:53.667Z,5.90
2018-01-29T15:13:53.642Z,4.80
2018-01-29T15:15:46.499Z,3.80
2018-01-29T15:16:46.445Z,4.10
2018-01-29T15:18:39.290Z,4.00
2018-01-29T15:19:39.249Z,4.10
2018-01-29T15:21:32.110Z,4.10
2018-01-29T15:22:32.058Z,4.20
2018-01-29T15:24:24.903Z,4.30
2018-01-29T15:25:24.872Z,4.00
2018-01-29T15:27:17.736Z,3.80
2018-01-29T15:28:17.684Z,4.10
2018-01-29T15:30:10.544Z,3.90
2018-01-29T15:31:10.481Z,3.60
2018-01-29T15:33:03.324Z,3.50
2018-01-29T15:34:03.291Z,4.00
2018-01-29T15:35:56.150Z,3.50
2018-01-29T15:36:56.094Z,3.90
2018-01-29T15:38:48.930Z,3.90
2018-01-29T15:39:48.899Z,3.70
2018-01-29T15:41:41.796Z,4.10
2018-01-29T15:42:41.702Z,3.50
2018-01-29T15:44:34.540Z,3.80
2018-01-29T15:45:34.510Z,3.80
2018-01-29T15:47:27.372Z,3.70
2018-01-29T15:48:27.312Z,4.20
2018-01-29T15:50:20.184Z,3.90
2018-01-29T15:51:20.117Z,4.40
2018-01-29T15:53:12.960Z,4.60
2018-01-29T15:54:12.930Z,4.20
2018-01-29T15:56:05.788Z,5.10
2018-01-29T15:57:05.732Z,4.30
2018-01-29T15:58:58.574Z,4.50
2018-01-29T15:59:58.535Z,4.80
2018-01-29T16:01:51.408Z,5.00
2018-01-29T16:02:51.357Z,5.70
2018-01-29T16:04:44.198Z,6.10
2018-01-29T16:05:44.157Z,6.00
2018-01-29T16:07:37.026Z,5.90
2018-01-29T16:08:36.967Z,6.90
2018-01-29T16:10:29.830Z,8.20
2018-01-29T16:11:29.770Z,7.30
2018-01-29T16:13:22.763Z,9.10
2018-01-29T16:14:22.668Z,10.10
2018-01-29T16:16:15.542Z,11.00
2018-01-29T16:17:15.476Z,8.90
2018-01-29T16:19:08.312Z,11.10
2018-01-29T16:20:08.289Z,12.50
2018-01-29T16:22:01.142Z,13.10
2018-01-29T16:23:01.086Z,12.60
2018-01-29T16:24:53.958Z,11.00
2018-01-29T16:25:53.897Z,11.70
2018-01-29T16:27:46.737Z,12.40
2018-01-29T16:28:46.699Z,13.50
2018-01-29T16:30:39.558Z,14.30
2018-01-29T16:31:39.505Z,12.70
2018-01-29T16:33:32.342Z,12.00
2018-01-29T16:34:32.308Z,11.00
2018-01-29T16:36:25.174Z,12.60
2018-01-29T16:37:25.117Z,11.40
2018-01-29T16:39:17.951Z,14.10
2018-01-29T16:40:17.920Z,15.00
2018-01-29T16:42:10.780Z,13.10
2018-01-29T16:43:10.721Z,15.80
2018-01-29T16:45:03.586Z,17.10
2018-01-29T16:46:03.533Z,15.90
2018-01-29T16:47:56.463Z,14.30
2018-01-29T16:48:56.366Z,24.50
2018-01-29T16:50:49.316Z,19.10
2018-01-29T16:51:49.215Z,20.40
2018-01-29T16:53:42.163Z,19.60
2018-01-29T16:54:42.073Z,18.40
2018-01-29T16:56:35.013Z,21.80
2018-01-29T16:57:34.979Z,19.60
2018-01-29T16:59:27.859Z,15.80
2018-01-29T17:00:27.764Z,14.00
2018-01-29T17:02:20.638Z,14.80
2018-01-29T17:03:20.575Z,15.60
2018-01-29T17:05:13.453Z,14.80
2018-01-29T17:06:13.385Z,15.40
2018-01-29T17:08:06.318Z,17.80
2018-01-29T17:09:06.216Z,13.50
2018-01-29T17:10:59.122Z,13.90
2018-01-29T17:11:59.071Z,14.00
2018-01-29T17:13:52.012Z,14.30
2018-01-29T17:14:51.876Z,13.50
2018-01-29T17:16:44.765Z,11.70
2018-01-29T17:17:44.680Z,12.90
2018-01-29T17:19:37.549Z,13.20
2018-01-29T17:20:37.516Z,14.70
2018-01-29T17:22:30.465Z,13.90
2018-01-29T17:23:30.365Z,14.50
2018-01-29T17:25:23.271Z,13.00
2018-01-29T17:26:23.274Z,11.80
2018-01-29T17:28:16.046Z,12.60
2018-01-29T17:29:16.013Z,12.20
2018-01-29T17:31:09.022Z,10.60
2018-01-29T17:32:08.914Z,11.70
2018-01-29T17:34:01.809Z,11.20
2018-01-29T17:35:01.774Z,9.90
2018-01-29T17:36:54.673Z,11.20
2018-01-29T17:37:54.621Z,10.30
2018-01-29T17:39:47.564Z,11.70
2018-01-29T17:40:47.473Z,11.70
2018-01-29T17:42:40.374Z,12.30
2018-01-29T17:43:40.316Z,10.80
2018-01-29T17:45:33.270Z,10.00
2018-01-29T17:46:33.175Z,14.40
2018-01-29T17:48:26.120Z,12.60
2018-01-29T17:49:26.022Z,13.60
2018-01-29T17:51:18.927Z,15.00
2018-01-29T17:52:18.870Z,11.80
2018-01-29T17:54:11.754Z,13.30
2018-01-29T17:55:11.719Z,11.90
2018-01-29T17:57:04.677Z,13.30
2018-01-29T17:58:04.568Z,13.90
2018-01-29T17:59:57.509Z,15.00
2018-01-29T18:00:57.432Z,13.60
2018-01-29T18:02:50.303Z,14.70
2018-01-29T18:03:50.333Z,14.10
2018-01-29T18:05:44.248Z,12.70
2018-01-29T18:06:43.124Z,12.70
2018-01-29T18:08:36.006Z,14.40
2018-01-29T18:09:35.969Z,14.90
2018-01-29T18:11:29.001Z,14.50
2018-01-29T18:12:28.987Z,15.50
2018-01-29T18:14:21.978Z,14.80
2018-01-29T18:15:21.877Z,13.00
2018-01-29T18:17:14.927Z,11.80
2018-01-29T18:18:14.833Z,12.20
2018-01-29T18:20:07.837Z,15.40
2018-01-29T18:21:07.784Z,13.10
2018-01-29T18:23:00.939Z,16.90
2018-01-29T18:24:00.734Z,18.10
2018-01-29T18:25:53.787Z,15.30
2018-01-29T18:26:53.684Z,14.80
2018-01-29T18:28:46.843Z,18.30
2018-01-29T18:29:46.641Z,22.80
2018-01-29T18:31:39.656Z,10.70
2018-01-29T18:32:39.590Z,10.90
2018-01-29T18:34:32.747Z,13.10
2018-01-29T18:35:32.546Z,13.30
2018-01-29T18:37:25.703Z,14.00
2018-01-29T18:38:25.502Z,13.80
2018-01-29T18:40:18.942Z,16.10
2018-01-29T18:41:18.452Z,13.60
2018-01-29T18:43:11.437Z,14.10
2018-01-29T18:44:11.404Z,12.50
2018-01-29T18:46:04.565Z,14.10
2018-01-29T18:47:04.358Z,13.10
2018-01-29T18:48:57.436Z,14.50
2018-01-29T18:49:57.217Z,14.10
2018-01-29T18:51:50.366Z,11.40
2018-01-29T18:52:50.156Z,11.50
2018-01-29T18:54:43.145Z,13.30
2018-01-29T18:55:43.116Z,14.90
2018-01-29T18:57:36.168Z,16.90
2018-01-29T18:58:35.985Z,18.70
2018-01-29T19:00:28.913Z,18.30
2018-01-29T19:01:28.839Z,19.40
2018-01-29T19:03:21.802Z,16.20
2018-01-29T19:04:21.937Z,16.40